createdAt,value
2018-04-19T00:01:28.762Z,71.00
2018-04-19T00:04:01.176Z,70.20
2018-04-19T00:06:33.642Z,70.40
2018-04-19T00:09:06.103Z,69.60
2018-04-19T00:11:38.443Z,69.80
2018-04-19T00:14:10.848Z,69.90
2018-04-19T00:16:43.885Z,71.00
2018-04-19T00:19:16.563Z,70.90
2018-04-19T00:21:48.969Z,71.30
2018-04-19T00:24:21.359Z,71.00
2018-04-19T00:26:53.966Z,71.30
2018-04-19T00:29:26.558Z,71.70
2018-04-19T00:31:59.358Z,71.70
2018-04-19T00:34:31.893Z,71.90
2018-04-19T00:37:04.420Z,72.00
2018-04-19T00:39:37.134Z,71.90
2018-04-19T00:42:09.769Z,71.80
2018-04-19T00:44:42.158Z,72.20
2018-04-19T00:47:14.625Z,71.90
2018-04-19T00:49:47.233Z,71.90
2018-04-19T00:52:21.457Z,72.40
2018-04-19T00:54:53.879Z,72.40
2018-04-19T00:57:27.165Z,73.50
2018-04-19T01:00:00.550Z,74.10
2018-04-19T01:02:33.031Z,73.40
2018-04-19T01:05:05.479Z,73.00
2018-04-19T01:07:37.900Z,72.00
2018-04-19T01:10:10.564Z,72.30
2018-04-19T01:12:44.046Z,72.40
2018-04-19T01:15:16.695Z,73.00
2018-04-19T01:17:49.130Z,72.90
2018-04-19T01:20:22.236Z,73.10
2018-04-19T01:22:54.813Z,73.10
2018-04-19T01:25:28.151Z,72.90
2018-04-19T01:28:00.740Z,73.00
2018-04-19T01:30:33.301Z,73.00
2018-04-19T01:33:06.466Z,71.70
2018-04-19T01:35:51.401Z,71.70
2018-04-19T01:38:23.899Z,71.90
2018-04-19T01:40:56.433Z,72.30
2018-04-19T01:43:29.001Z,71.60
2018-04-19T01:46:01.334Z,72.50
2018-04-19T01:48:33.856Z,72.10
2018-04-19T01:51:06.284Z,72.20
2018-04-19T01:53:38.769Z,72.80
2018-04-19T01:56:11.906Z,72.80
2018-04-19T01:58:44.508Z,72.60
2018-04-19T02:01:17.700Z,73.20
2018-04-19T02:03:51.582Z,73.40
2018-04-19T02:06:24.134Z,73.40
2018-04-19T02:08:56.622Z,73.50
2018-04-19T02:11:30.005Z,73.60
2018-04-19T02:14:02.574Z,73.40
2018-04-19T02:16:35.213Z,73.80
2018-04-19T02:19:08.520Z,74.00
2018-04-19T02:21:41.678Z,74.00
2018-04-19T02:24:14.020Z,74.00
2018-04-19T02:26:46.438Z,74.50
2018-04-19T02:29:19.039Z,74.70
2018-04-19T02:31:51.520Z,74.50
2018-04-19T02:34:23.931Z,74.20
2018-04-19T02:36:56.485Z,74.50
2018-04-19T02:39:28.855Z,74.20
2018-04-19T02:42:02.040Z,73.80
2018-04-19T02:44:34.426Z,73.80
2018-04-19T02:47:07.024Z,73.60
2018-04-19T02:49:40.335Z,73.50
2018-04-19T02:52:12.784Z,73.40
2018-04-19T02:54:45.264Z,73.00
2018-04-19T02:57:17.944Z,73.20
2018-04-19T02:59:50.355Z,73.30
2018-04-19T03:02:22.741Z,72.20
2018-04-19T03:04:55.245Z,72.70
2018-04-19T03:07:27.849Z,72.60
2018-04-19T03:10:00.504Z,72.80
2018-04-19T03:12:33.272Z,72.50
2018-04-19T03:15:05.749Z,72.20
2018-04-19T03:17:39.543Z,71.90
2018-04-19T03:20:11.962Z,71.80
2018-04-19T03:22:44.370Z,71.30
2018-04-19T03:25:16.889Z,71.70
2018-04-19T03:27:49.443Z,71.60
2018-04-19T03:30:22.851Z,71.50
2018-04-19T03:32:56.056Z,70.90
2018-04-19T03:35:29.494Z,70.60
2018-04-19T03:38:02.135Z,70.50
2018-04-19T03:40:34.909Z,71.00
2018-04-19T03:43:07.467Z,72.00
2018-04-19T03:45:39.924Z,72.00
2018-04-19T03:48:12.510Z,72.40
2018-04-19T03:50:44.929Z,72.70
2018-04-19T03:53:18.278Z,73.50
2018-04-19T03:55:50.840Z,73.30
2018-04-19T03:58:23.599Z,73.80
2018-04-19T04:00:56.220Z,73.80
2018-04-19T04:03:29.300Z,73.70
2018-04-19T04:06:09.306Z,73.50
2018-04-19T04:08:42.699Z,73.50
2018-04-19T04:11:15.358Z,73.30
2018-04-19T04:13:47.932Z,73.00
2018-04-19T04:16:32.779Z,73.10
2018-04-19T04:19:18.254Z,73.30
2018-04-19T04:22:17.356Z,73.20
2018-04-19T04:24:49.836Z,73.40
2018-04-19T04:27:22.254Z,72.70
2018-04-19T04:29:55.529Z,73.80
2018-04-19T04:32:29.074Z,73.60
2018-04-19T04:35:01.600Z,73.70
2018-04-19T04:37:34.171Z,74.00
2018-04-19T04:40:07.463Z,74.00
2018-04-19T04:42:39.945Z,74.20
2018-04-19T04:45:12.746Z,74.60
2018-04-19T04:47:45.343Z,74.40
2018-04-19T04:50:18.401Z,74.50
2018-04-19T04:52:50.916Z,74.40
2018-04-19T04:55:23.434Z,74.20
2018-04-19T04:57:55.810Z,73.90
2018-04-19T05:00:28.288Z,73.70
2018-04-19T05:03:00.866Z,73.80
2018-04-19T05:05:33.267Z,73.70
2018-04-19T05:08:05.823Z,73.70
2018-04-19T05:10:38.403Z,73.10
2018-04-19T05:13:10.979Z,73.90
2018-04-19T05:15:43.407Z,73.90
2018-04-19T05:18:15.756Z,74.00
2018-04-19T05:20:48.949Z,73.30
2018-04-19T05:23:22.698Z,73.30
2018-04-19T05:25:55.136Z,73.30
2018-04-19T05:28:27.586Z,73.40
2018-04-19T05:31:00.367Z,73.20
2018-04-19T05:33:33.071Z,72.30
2018-04-19T05:36:05.521Z,72.00
2018-04-19T05:38:38.336Z,72.00
2018-04-19T05:41:10.786Z,71.20
2018-04-19T05:43:44.040Z,68.80
2018-04-19T05:46:17.154Z,68.80
2018-04-19T05:48:49.471Z,68.20
2018-04-19T05:51:22.020Z,68.20
2018-04-19T05:53:54.530Z,66.90
2018-04-19T05:56:27.255Z,65.70
2018-04-19T05:58:59.836Z,64.60
2018-04-19T06:01:32.591Z,63.80
2018-04-19T06:04:05.055Z,63.70
2018-04-19T06:06:37.706Z,63.30
2018-04-19T06:09:10.536Z,63.00
2018-04-19T06:11:42.887Z,62.00
2018-04-19T06:14:16.219Z,61.00
2018-04-19T06:16:48.715Z,61.00
2018-04-19T06:19:22.667Z,59.80
2018-04-19T06:21:55.147Z,59.80
2018-04-19T06:24:27.833Z,59.10
2018-04-19T06:27:00.249Z,58.80
2018-04-19T06:29:32.844Z,58.90
2018-04-19T06:32:05.504Z,59.70
2018-04-19T06:34:38.676Z,58.90
2018-04-19T06:37:11.049Z,58.80
2018-04-19T06:39:43.719Z,57.70
2018-04-19T06:42:16.086Z,56.90
2018-04-19T06:44:48.440Z,56.10
2018-04-19T06:47:20.974Z,55.20
2018-04-19T06:49:53.454Z,54.80
2018-04-19T06:52:25.834Z,55.30
2018-04-19T06:54:58.987Z,53.70
2018-04-19T06:57:31.660Z,53.70
2018-04-19T07:00:04.122Z,52.30
2018-04-19T07:02:36.511Z,53.30
2018-04-19T07:05:08.900Z,52.60
2018-04-19T07:07:42.146Z,50.50
2018-04-19T07:10:14.744Z,50.40
2018-04-19T07:12:47.270Z,50.40
2018-04-19T07:15:19.791Z,49.70
2018-04-19T07:17:53.004Z,48.90
2018-04-19T07:20:25.757Z,48.90
2018-04-19T07:22:58.266Z,50.50
2018-04-19T07:25:30.671Z,49.10
2018-04-19T07:28:03.268Z,49.80
2018-04-19T07:30:36.585Z,47.10
2018-04-19T07:33:08.890Z,47.00
2018-04-19T07:35:41.563Z,47.60
2018-04-19T07:38:14.068Z,46.80
2018-04-19T07:40:46.485Z,47.40
2018-04-19T07:43:19.091Z,47.80
2018-04-19T07:45:52.491Z,47.40
2018-04-19T07:48:24.855Z,47.40
2018-04-19T07:50:57.344Z,46.60
2018-04-19T07:53:29.955Z,46.80
2018-04-19T07:56:02.732Z,46.00
2018-04-19T07:58:35.275Z,45.30
2018-04-19T08:01:14.715Z,46.50
2018-04-19T08:03:47.255Z,45.20
2018-04-19T08:06:20.258Z,45.00
2018-04-19T08:08:52.819Z,43.80
2018-04-19T08:11:25.325Z,45.10
2018-04-19T08:13:57.847Z,42.90
2018-04-19T08:16:30.225Z,42.00
2018-04-19T08:19:02.790Z,41.20
2018-04-19T08:21:35.401Z,41.10
2018-04-19T08:24:07.879Z,41.60
2018-04-19T08:26:40.556Z,41.70
2018-04-19T08:29:12.979Z,42.10
2018-04-19T08:31:45.340Z,41.00
2018-04-19T08:34:17.878Z,39.30
2018-04-19T08:36:51.246Z,39.40
2018-04-19T08:39:23.898Z,39.40
2018-04-19T08:41:57.162Z,38.80
2018-04-19T08:44:29.759Z,38.70
2018-04-19T08:47:02.250Z,37.70
2018-04-19T08:49:34.642Z,38.60
2018-04-19T08:52:07.106Z,38.20
2018-04-19T08:54:40.296Z,38.00
2018-04-19T08:57:12.887Z,38.00
2018-04-19T08:59:45.464Z,37.60
2018-04-19T09:02:18.176Z,37.20
2018-04-19T09:04:51.596Z,37.70
2018-04-19T09:07:24.113Z,37.70
2018-04-19T09:09:56.606Z,37.80
2018-04-19T09:12:29.195Z,37.60
2018-04-19T09:15:01.756Z,37.40
2018-04-19T09:17:35.147Z,37.60
2018-04-19T09:20:07.615Z,37.50
2018-04-19T09:22:40.137Z,36.80
2018-04-19T09:25:13.435Z,37.00
2018-04-19T09:27:45.840Z,37.20
2018-04-19T09:30:19.190Z,36.00
2018-04-19T09:32:51.825Z,36.00
2018-04-19T09:35:24.301Z,37.40
2018-04-19T09:37:57.465Z,35.20
2018-04-19T09:40:29.926Z,35.10
2018-04-19T09:43:02.442Z,36.60
2018-04-19T09:45:35.507Z,35.60
2018-04-19T09:48:07.870Z,35.60
2018-04-19T09:50:40.464Z,36.80
2018-04-19T09:53:13.076Z,37.20
2018-04-19T09:55:46.451Z,36.10
2018-04-19T09:58:19.418Z,36.00
2018-04-19T10:00:58.079Z,36.30
2018-04-19T10:03:36.605Z,37.40
2018-04-19T10:06:09.013Z,35.70
2018-04-19T10:08:41.640Z,37.10
2018-04-19T10:11:14.220Z,36.20
2018-04-19T10:13:47.641Z,35.00
2018-04-19T10:16:20.416Z,34.90
2018-04-19T10:18:53.182Z,35.40
2018-04-19T10:21:26.534Z,37.40
2018-04-19T10:23:59.781Z,35.60
2018-04-19T10:26:32.360Z,35.60
2018-04-19T10:29:04.920Z,34.30
2018-04-19T10:31:37.492Z,35.00
2018-04-19T10:34:10.738Z,34.90
2018-04-19T10:36:43.260Z,34.80
2018-04-19T10:39:15.857Z,35.10
2018-04-19T10:41:48.405Z,33.70
2018-04-19T10:44:21.010Z,34.00
2018-04-19T10:46:53.565Z,32.60
2018-04-19T10:49:25.972Z,33.60
2018-04-19T10:51:59.052Z,32.40
2018-04-19T10:54:31.596Z,32.30
2018-04-19T10:57:04.888Z,30.00
2018-04-19T10:59:38.177Z,29.50
2018-04-19T11:02:10.549Z,29.40
2018-04-19T11:04:43.127Z,30.80
2018-04-19T11:07:15.702Z,30.00
2018-04-19T11:09:48.151Z,29.90
2018-04-19T11:12:20.550Z,29.00
2018-04-19T11:14:53.900Z,30.00
2018-04-19T11:17:26.394Z,30.00
2018-04-19T11:19:58.960Z,29.10
2018-04-19T11:22:32.214Z,28.10
2018-04-19T11:25:04.735Z,28.90
2018-04-19T11:27:37.296Z,28.40
2018-04-19T11:30:09.715Z,27.40
2018-04-19T11:32:42.082Z,27.80
2018-04-19T11:35:14.590Z,28.20
2018-04-19T11:37:47.235Z,27.60
2018-04-19T11:40:19.719Z,27.60
2018-04-19T11:42:52.361Z,27.30
2018-04-19T11:45:24.828Z,25.20
2018-04-19T11:47:57.409Z,25.50
2018-04-19T11:50:30.748Z,26.40
2018-04-19T11:53:03.202Z,26.40
2018-04-19T11:55:35.681Z,27.10
2018-04-19T11:58:08.834Z,25.10
2018-04-19T12:00:41.345Z,25.80
2018-04-19T12:03:14.085Z,24.40
2018-04-19T12:05:47.463Z,26.70
2018-04-19T12:08:19.997Z,26.70
2018-04-19T12:10:53.135Z,27.80
2018-04-19T12:13:25.836Z,27.70
2018-04-19T12:15:58.425Z,27.00
2018-04-19T12:18:31.556Z,27.00
2018-04-19T12:21:04.210Z,26.90
2018-04-19T12:23:36.725Z,26.70
2018-04-19T12:26:09.297Z,25.10
2018-04-19T12:28:42.542Z,25.80
2018-04-19T12:31:15.172Z,25.80
2018-04-19T12:33:47.743Z,25.60
2018-04-19T12:36:21.040Z,25.40
2018-04-19T12:38:54.170Z,25.30
2018-04-19T12:41:26.717Z,25.00
2018-04-19T12:43:59.465Z,27.30
2018-04-19T12:46:32.007Z,28.80
2018-04-19T12:49:04.286Z,29.20
2018-04-19T12:51:36.817Z,29.10
2018-04-19T12:54:09.267Z,28.90
2018-04-19T12:56:41.587Z,29.00
2018-04-19T12:59:14.242Z,28.70
2018-04-19T13:01:46.708Z,27.10
2018-04-19T13:04:19.081Z,26.90
2018-04-19T13:06:51.487Z,27.50
2018-04-19T13:09:23.867Z,26.80
2018-04-19T13:11:56.212Z,25.80
2018-04-19T13:14:28.872Z,25.20
2018-04-19T13:17:01.476Z,23.60
2018-04-19T13:19:34.067Z,22.90
2018-04-19T13:22:06.691Z,21.40
2018-04-19T13:24:39.076Z,21.00
2018-04-19T13:27:12.246Z,20.20
2018-04-19T13:29:44.995Z,20.10
2018-04-19T13:32:17.472Z,20.00
2018-04-19T13:34:50.124Z,19.30
2018-04-19T13:37:22.600Z,18.50
2018-04-19T13:39:55.336Z,18.40
2018-04-19T13:42:27.738Z,18.70
2018-04-19T13:45:00.326Z,18.60
2018-04-19T13:47:33.053Z,17.50
2018-04-19T13:50:05.761Z,18.30
2018-04-19T13:52:38.388Z,17.90
2018-04-19T13:55:10.771Z,16.70
2018-04-19T13:57:43.463Z,17.30
2018-04-19T14:00:15.862Z,19.60
2018-04-19T14:02:48.473Z,18.80
2018-04-19T14:05:20.891Z,19.80
2018-04-19T14:07:54.018Z,20.20
2018-04-19T14:10:26.439Z,20.40
2018-04-19T14:12:58.788Z,21.20
2018-04-19T14:15:32.201Z,21.40
2018-04-19T14:18:04.796Z,21.30
2018-04-19T14:20:37.310Z,21.90
2018-04-19T14:23:10.689Z,22.90
2018-04-19T14:25:44.076Z,22.30
2018-04-19T14:28:16.966Z,22.30
2018-04-19T14:30:49.517Z,22.70
2018-04-19T14:33:22.096Z,23.70
2018-04-19T14:35:55.354Z,22.70
2018-04-19T14:38:27.817Z,21.80
2018-04-19T14:41:00.953Z,22.20
2018-04-19T14:43:33.659Z,22.20
2018-04-19T14:46:06.205Z,22.50
2018-04-19T14:48:38.583Z,22.50
2018-04-19T14:51:11.392Z,23.60
2018-04-19T14:53:43.858Z,22.60
2018-04-19T14:56:16.184Z,22.00
2018-04-19T14:58:49.843Z,23.30
2018-04-19T15:01:22.494Z,23.30
2018-04-19T15:03:55.137Z,22.40
2018-04-19T15:06:27.798Z,23.40
2018-04-19T15:09:00.565Z,22.70
2018-04-19T15:11:34.076Z,21.20
2018-04-19T15:14:06.591Z,21.20
2018-04-19T15:16:39.693Z,22.00
2018-04-19T15:19:12.218Z,21.90
2018-04-19T15:21:45.317Z,21.00
2018-04-19T15:24:18.732Z,22.80
2018-04-19T15:26:51.968Z,22.70
2018-04-19T15:29:25.127Z,22.70
2018-04-19T15:31:57.662Z,23.30
2018-04-19T15:34:30.866Z,21.70
2018-04-19T15:37:04.190Z,21.40
2018-04-19T15:39:37.516Z,22.00
2018-04-19T15:42:09.920Z,22.00
2018-04-19T15:44:42.217Z,21.20
2018-04-19T15:47:14.984Z,22.90
2018-04-19T15:49:48.352Z,22.30
2018-04-19T15:52:21.484Z,22.30
2018-04-19T15:54:55.448Z,20.90
2018-04-19T15:57:27.927Z,20.90
2018-04-19T16:00:01.029Z,20.50
2018-04-19T16:02:34.271Z,20.60
2018-04-19T16:05:07.026Z,20.60
2018-04-19T16:07:39.781Z,21.00
2018-04-19T16:10:12.412Z,19.90
2018-04-19T16:12:44.913Z,19.40
2018-04-19T16:15:17.592Z,19.80
2018-04-19T16:17:50.374Z,19.40
2018-04-19T16:20:23.742Z,19.30
2018-04-19T16:22:56.308Z,19.30
2018-04-19T16:25:29.118Z,19.60
2018-04-19T16:28:01.564Z,19.10
2018-04-19T16:30:34.079Z,19.20
2018-04-19T16:33:06.591Z,20.20
2018-04-19T16:35:39.400Z,20.10
2018-04-19T16:38:12.757Z,19.70
2018-04-19T16:40:45.130Z,19.40
2018-04-19T16:43:18.325Z,17.20
2018-04-19T16:45:50.856Z,17.10
2018-04-19T16:48:24.238Z,17.70
2018-04-19T16:50:56.686Z,17.70
2018-04-19T16:53:29.226Z,17.70
2018-04-19T16:56:03.633Z,20.70
2018-04-19T16:58:37.000Z,21.50
2018-04-19T17:01:09.681Z,21.50
2018-04-19T17:03:42.875Z,22.90
2018-04-19T17:06:15.421Z,24.50
2018-04-19T17:08:48.109Z,24.50
2018-04-19T17:11:20.830Z,26.50
2018-04-19T17:13:53.444Z,27.10
2018-04-19T17:16:26.040Z,28.30
2018-04-19T17:18:58.679Z,29.40
2018-04-19T17:21:31.193Z,29.60
2018-04-19T17:24:04.522Z,29.50
2018-04-19T17:26:37.294Z,30.00
2018-04-19T17:29:10.010Z,31.50
2018-04-19T17:31:43.465Z,31.20
2018-04-19T17:34:15.922Z,31.80
2018-04-19T17:36:48.438Z,32.10
2018-04-19T17:39:21.016Z,31.80
2018-04-19T17:41:54.147Z,34.20
2018-04-19T17:44:27.379Z,34.50
2018-04-19T17:46:59.984Z,34.40
2018-04-19T17:49:32.594Z,35.80
2018-04-19T17:52:05.025Z,36.50
2018-04-19T17:54:37.632Z,35.80
2018-04-19T17:57:10.103Z,36.10
2018-04-19T17:59:42.667Z,36.50
2018-04-19T18:02:15.292Z,37.90
2018-04-19T18:04:48.037Z,38.70
2018-04-19T18:07:21.183Z,38.30
2018-04-19T18:09:53.712Z,38.80
2018-04-19T18:12:26.397Z,38.80
2018-04-19T18:14:59.025Z,39.10
2018-04-19T18:17:31.685Z,39.00
2018-04-19T18:20:04.262Z,39.40
2018-04-19T18:22:37.115Z,39.50
2018-04-19T18:25:09.552Z,39.10
2018-04-19T18:27:42.139Z,39.80
2018-04-19T18:30:14.721Z,39.10
2018-04-19T18:32:47.489Z,39.10
2018-04-19T18:35:20.606Z,40.30
2018-04-19T18:37:54.096Z,39.50
2018-04-19T18:40:26.921Z,39.50
2018-04-19T18:42:59.447Z,39.20
2018-04-19T18:45:31.970Z,38.40
2018-04-19T18:48:04.528Z,38.20
2018-04-19T18:50:37.927Z,38.50
2018-04-19T18:53:11.114Z,38.50
2018-04-19T18:55:43.776Z,38.40
2018-04-19T18:58:16.313Z,38.30
2018-04-19T19:00:49.144Z,38.10
2018-04-19T19:03:21.940Z,38.60
2018-04-19T19:05:55.352Z,37.90
2018-04-19T19:08:27.894Z,37.80
2018-04-19T19:11:00.429Z,38.80
2018-04-19T19:13:33.121Z,39.70
2018-04-19T19:16:12.826Z,40.20
2018-04-19T19:18:57.972Z,40.00
2018-04-19T19:21:30.579Z,40.50
2018-04-19T19:24:03.197Z,40.90
2018-04-19T19:26:35.969Z,42.10
2018-04-19T19:29:08.530Z,41.40
2018-04-19T19:31:41.319Z,40.80
2018-04-19T19:34:14.033Z,40.40
2018-04-19T19:36:46.818Z,40.50
2018-04-19T19:39:19.498Z,40.80
2018-04-19T19:41:52.970Z,40.50
2018-04-19T19:44:26.277Z,40.70
2018-04-19T19:46:59.687Z,40.60
2018-04-19T19:49:27.043Z,40.80
2018-04-19T19:51:55.186Z,39.80
2018-04-19T19:54:21.738Z,39.80
2018-04-19T19:56:48.368Z,40.50
2018-04-19T19:59:14.772Z,39.00
2018-04-19T20:01:41.144Z,39.70
2018-04-19T20:04:08.448Z,40.00
2018-04-19T20:06:36.555Z,40.60
2018-04-19T20:09:03.254Z,40.90
2018-04-19T20:11:29.891Z,41.10
2018-04-19T20:13:56.453Z,40.40
2018-04-19T20:16:22.852Z,39.00
2018-04-19T20:18:49.471Z,41.70
2018-04-19T20:21:17.734Z,41.50
2018-04-19T20:23:44.138Z,41.50
2018-04-19T20:26:10.994Z,41.90
2018-04-19T20:28:38.114Z,41.00
2018-04-19T20:31:10.928Z,41.00
2018-04-19T20:33:43.372Z,42.60
2018-04-19T20:36:15.870Z,41.50
2018-04-19T20:38:49.282Z,42.20
2018-04-19T20:41:21.719Z,41.60
2018-04-19T20:43:54.253Z,39.20
2018-04-19T20:46:26.718Z,41.00
2018-04-19T20:48:59.656Z,40.90
2018-04-19T20:51:32.082Z,41.50
2018-04-19T20:54:04.486Z,40.90
2018-04-19T20:56:37.723Z,40.90
2018-04-19T20:59:10.327Z,40.80
2018-04-19T21:01:42.769Z,41.40
2018-04-19T21:04:15.748Z,41.30
2018-04-19T21:06:48.473Z,41.00
2018-04-19T21:09:21.751Z,41.40
2018-04-19T21:11:54.262Z,41.60
2018-04-19T21:14:27.969Z,41.50
2018-04-19T21:17:01.138Z,41.40
2018-04-19T21:19:33.671Z,41.70
2018-04-19T21:22:06.553Z,42.40
2018-04-19T21:24:39.068Z,42.80
2018-04-19T21:27:11.591Z,42.50
2018-04-19T21:29:44.270Z,42.60
2018-04-19T21:32:16.932Z,44.30
2018-04-19T21:34:49.963Z,44.10
2018-04-19T21:37:22.400Z,43.50
2018-04-19T21:39:54.798Z,43.90
2018-04-19T21:42:27.267Z,44.40
2018-04-19T21:45:00.547Z,45.80
2018-04-19T21:47:33.834Z,44.90
2018-04-19T21:50:06.169Z,44.90
2018-04-19T21:52:38.712Z,45.20
2018-04-19T21:55:11.463Z,46.10
2018-04-19T21:57:44.078Z,46.30
2018-04-19T22:00:17.444Z,47.00
2018-04-19T22:02:50.379Z,47.10
2018-04-19T22:05:23.813Z,48.30
2018-04-19T22:07:56.734Z,48.30
2018-04-19T22:10:29.109Z,48.20
2018-04-19T22:13:03.067Z,48.70
2018-04-19T22:15:35.482Z,48.70
2018-04-19T22:18:08.584Z,48.60
2018-04-19T22:20:41.158Z,48.50
2018-04-19T22:23:14.000Z,49.20
2018-04-19T22:25:46.579Z,48.90
2018-04-19T22:28:19.198Z,49.10
2018-04-19T22:30:51.697Z,49.00
2018-04-19T22:33:24.433Z,49.60
2018-04-19T22:35:57.098Z,50.70
2018-04-19T22:38:29.702Z,50.00
2018-04-19T22:41:02.498Z,51.00
2018-04-19T22:43:36.097Z,51.60
2018-04-19T22:46:08.834Z,51.60
2018-04-19T22:48:42.228Z,52.00
2018-04-19T22:51:14.975Z,52.00
2018-04-19T22:53:47.579Z,52.00
2018-04-19T22:56:20.431Z,52.00
2018-04-19T22:58:53.294Z,52.30
2018-04-19T23:01:26.075Z,52.90
2018-04-19T23:03:58.848Z,52.40
2018-04-19T23:06:31.834Z,52.80
2018-04-19T23:09:05.366Z,53.70
2018-04-19T23:11:38.970Z,54.20
2018-04-19T23:14:13.329Z,54.40
2018-04-19T23:16:46.589Z,54.40
2018-04-19T23:19:19.374Z,54.40
2018-04-19T23:21:51.965Z,55.20
2018-04-19T23:24:25.443Z,55.10
2018-04-19T23:26:58.192Z,55.10
2018-04-19T23:29:30.866Z,55.80
2018-04-19T23:32:03.508Z,55.90
2018-04-19T23:34:36.335Z,55.50
2018-04-19T23:37:09.630Z,56.20
2018-04-19T23:39:43.333Z,55.70
2018-04-19T23:42:16.760Z,56.00
2018-04-19T23:44:49.546Z,56.00
2018-04-19T23:47:22.078Z,56.70
2018-04-19T23:49:54.720Z,57.50
2018-04-19T23:52:28.253Z,58.40
2018-04-19T23:55:00.970Z,58.40
2018-04-19T23:57:34.406Z,58.20
